Time;durP1;ratioP1;P1;durP2;ratioP2;P2;SDS_P1;SDS_P2;PMS_P1;PMS_P2;Temp;Humidity;BMP_temperature;BMP_pressure;BME280_temperature;BME280_humidity;BME280_pressure;Samples;Min_cycle;Max_cycle;Signal;HPM_P1;HPM_P2
2024/04/04 00:04:54;;;;;;;11.32;2.10;;;;;;;12.57;100.00;97291.63;5064583;28;20035;-74
2024/04/04 00:07:43;;;;;;;5.95;1.80;;;;;;;12.48;100.00;97285.13;5072784;28;20148;-74
2024/04/04 00:10:58;;;;;;;;;;;;;;;;;;;;;
2024/04/04 00:14:15;;;;;;;1.77;1.30;;;;;;;12.64;100.00;97288.41;5079257;28;20024;-74
2024/04/04 00:17:07;;;;;;;2.55;1.40;;;;;;;12.56;100.00;97281.88;5093462;28;20060;-74
2024/04/04 00:20:06;;;;;;;6.47;1.50;;;;;;;12.47;100.00;97288.78;5075812;28;20043;-74
2024/04/04 00:23:10;;;;;;;4.72;1.88;;;;;;;12.32;100.00;97289.91;5089555;28;20040;-74
2024/04/04 00:26:20;;;;;;;3.92;1.80;;;;;;;12.20;100.00;97286.28;5060278;28;20177;-74
2024/04/04 00:29:21;;;;;;;;;;;;;;;;;;;;;
2024/04/04 00:32:20;;;;;;;3.38;1.88;;;;;;;12.11;100.00;97286.97;5066723;28;20032;-74
2024/04/04 00:35:16;;;;;;;;;;;;;;;;;;;;;
2024/04/04 00:38:04;;;;;;;7.15;2.47;;;;;;;12.03;100.00;97292.00;5076372;28;20443;-74
2024/04/04 00:40:56;;;;;;;;;;;;;;;;;;;;;
2024/04/04 00:43:50;;;;;;;14.65;3.53;;;;;;;11.64;100.00;97292.13;5075975;28;20456;-73
2024/04/04 00:46:24;;;;;;;8.95;2.65;;;;;;;11.73;100.00;97287.00;5075595;28;20403;-73
2024/04/04 00:49:19;;;;;;;11.35;2.88;;;;;;;11.68;100.00;97293.63;5087628;28;20043;-76
2024/04/04 00:52:09;;;;;;;8.80;3.17;;;;;;;11.70;100.00;97291.72;5058610;28;20024;-73
2024/04/04 00:55:05;;;;;;;4.65;2.38;;;;;;;11.64;100.00;97293.00;5074998;28;20035;-75
2024/04/04 01:01:38;;;;;;;6.68;2.95;;;;;;;11.59;100.00;97292.47;5066593;28;20488;-74
2024/04/04 01:04:54;;;;;;;;;;;;;;;;;;;;;
2024/04/04 01:10:49;;;;;;;3.88;2.25;;;;;;;11.37;100.00;97278.84;5007131;28;20031;-74
2024/04/04 01:13:26;;;;;;;3.92;2.67;;;;;;;11.25;100.00;97285.06;5069602;28;20020;-74
2024/04/04 01:16:12;;;;;;;5.65;2.30;;;;;;;11.19;100.00;97280.97;5055345;28;20397;-75
2024/04/04 01:18:44;;;;;;;3.55;2.15;;;;;;;11.17;100.00;97274.84;5074709;28;20024;-73
2024/04/04 01:21:12;;;;;;;4.97;1.77;;;;;;;11.27;100.00;97278.63;5046760;28;20016;-74
2024/04/04 01:33:32;;;;;;;4.30;2.13;;;;;;;11.70;100.00;97265.78;5057232;28;20454;-74
2024/04/04 01:39:10;;;;;;;4.32;2.13;;;;;;;11.60;100.00;97274.53;5087623;28;20078;-74
2024/04/04 01:48:38;;;;;;;4.82;2.50;;;;;;;11.52;100.00;97293.84;5077941;28;20118;-73
2024/04/04 01:54:47;;;;;;;4.18;1.95;;;;;;;11.58;100.00;97296.09;5069149;28;20069;-75
2024/04/04 01:57:26;;;;;;;4.43;1.80;;;;;;;11.47;100.00;97295.13;5064962;28;20104;-74
2024/04/04 02:00:35;;;;;;;3.85;1.88;;;;;;;11.40;100.00;97300.91;5045206;28;20106;-74
2024/04/04 02:06:32;;;;;;;10.80;4.47;;;;;;;11.33;100.00;97298.75;5016108;28;20492;-75
2024/04/04 02:13:07;;;;;;;3.92;1.90;;;;;;;11.40;100.00;97295.56;5070689;28;20047;-75
2024/04/04 02:16:09;;;;;;;3.17;1.80;;;;;;;11.46;100.00;97304.13;5040128;28;20102;-74
2024/04/04 02:20:00;;;;;;;;;;;;;;;;;;;;;
2024/04/04 02:22:29;;;;;;;6.28;2.00;;;;;;;11.51;100.00;97291.25;5063411;28;20028;-73
2024/04/04 02:25:10;;;;;;;4.63;1.92;;;;;;;11.50;100.00;97284.22;5051799;28;20033;-74
2024/04/04 02:27:48;;;;;;;11.35;3.30;;;;;;;11.50;100.00;97292.25;5053807;28;20165;-73
2024/04/04 02:30:27;;;;;;;9.98;2.50;;;;;;;11.38;100.00;97291.28;5052377;28;20029;-74
2024/04/04 02:33:01;;;;;;;6.10;2.47;;;;;;;11.37;100.00;97295.78;5036052;28;20028;-74
2024/04/04 02:36:24;;;;;;;6.03;2.65;;;;;;;11.10;100.00;97297.66;5051320;28;20135;-73
2024/04/04 02:39:34;;;;;;;7.75;3.65;;;;;;;11.03;100.00;97299.03;5037009;28;20032;-74
2024/04/04 02:42:20;;;;;;;8.10;3.22;;;;;;;10.86;100.00;97301.97;5070424;28;20115;-74
2024/04/04 02:45:08;;;;;;;7.20;3.33;;;;;;;10.95;100.00;97298.69;5066783;28;20098;-74
2024/04/04 02:47:53;;;;;;;13.45;4.45;;;;;;;10.76;100.00;97306.25;5036383;28;20060;-75
2024/04/04 02:51:10;;;;;;;12.23;3.88;;;;;;;10.59;100.00;97293.97;5054654;28;20579;-75
2024/04/04 02:53:58;;;;;;;9.40;4.18;;;;;;;10.48;100.00;97299.19;5069567;28;20060;-74
2024/04/04 02:56:53;;;;;;;10.95;4.53;;;;;;;10.57;100.00;97303.06;5033315;28;20028;-74
2024/04/04 03:03:17;;;;;;;13.57;5.05;;;;;;;10.65;100.00;97317.66;5082694;28;20047;-75
2024/04/04 03:06:08;;;;;;;11.10;4.60;;;;;;;10.63;100.00;97316.03;5090213;28;20062;-74
2024/04/04 03:12:17;;;;;;;6.50;3.15;;;;;;;10.67;100.00;97310.41;5082139;28;20468;-74
2024/04/04 03:15:10;;;;;;;7.75;4.25;;;;;;;10.54;100.00;97297.91;5055803;28;20494;-74
2024/04/04 03:18:04;;;;;;;10.85;4.45;;;;;;;10.46;100.00;97302.94;5071532;28;20094;-74
2024/04/04 03:21:13;;;;;;;10.88;4.40;;;;;;;10.41;100.00;97299.69;5090223;28;20106;-74
2024/04/04 03:24:14;;;;;;;9.13;2.22;;;;;;;10.03;100.00;97286.94;5089239;28;20032;-73
2024/04/04 03:27:13;;;;;;;5.63;1.80;;;;;;;9.92;100.00;97277.91;5088501;28;20028;-73
2024/04/04 03:29:41;;;;;;;3.78;1.77;;;;;;;9.93;100.00;97271.59;5071133;28;20105;-74
2024/04/04 03:32:32;;;;;;;;;;;;;;;;;;;;;
2024/04/04 03:35:43;;;;;;;;;;;;;;;;;;;;;
2024/04/04 03:39:04;;;;;;;;;;;;;;;;;;;;;
2024/04/04 03:41:55;;;;;;;12.15;2.70;;;;;;;10.15;100.00;97278.16;5090475;28;20527;-72
2024/04/04 03:44:52;;;;;;;;;;;;;;;;;;;;;
2024/04/04 03:47:35;;;;;;;11.15;3.20;;;;;;;10.31;100.00;97276.22;5091005;28;20410;-73
2024/04/04 03:54:30;;;;;;;;;;;;;;;;;;;;;
2024/04/04 03:57:14;;;;;;;16.80;6.65;;;;;;;10.38;100.00;97291.84;5090432;28;20355;-73
2024/04/04 03:59:58;;;;;;;19.00;8.65;;;;;;;10.38;100.00;97283.84;5072348;28;20066;-73
2024/04/04 04:03:19;;;;;;;17.13;7.97;;;;;;;10.44;100.00;97283.44;5072167;28;20135;-73
2024/04/04 04:06:21;;;;;;;13.73;6.40;;;;;;;10.47;100.00;97288.56;5088659;28;20036;-73
2024/04/04 04:09:10;;;;;;;12.10;5.57;;;;;;;10.49;100.00;97284.00;5075044;28;20089;-73
2024/04/04 04:11:41;;;;;;;17.38;4.68;;;;;;;10.45;100.00;97287.84;5091161;28;20031;-74
2024/04/04 04:17:31;;;;;;;7.03;2.28;;;;;;;10.18;100.00;97285.97;5059697;28;20348;-74
2024/04/04 04:23:33;;;;;;;5.00;2.40;;;;;;;10.12;100.00;97285.50;5069333;28;20078;-73
2024/04/04 04:29:17;;;;;;;;;;;;;;;;;;;;;
2024/04/04 04:32:35;;;;;;;11.55;3.53;;;;;;;10.66;100.00;97291.75;5073952;28;20028;-73
2024/04/04 04:35:24;;;;;;;12.23;5.18;;;;;;;10.70;100.00;97295.97;5089808;28;20098;-72
2024/04/04 04:38:05;;;;;;;11.85;4.32;;;;;;;10.84;100.00;97296.75;5090160;28;20023;-72
2024/04/04 04:40:43;;;;;;;;;;;;;;;;;;;;;
2024/04/04 04:43:15;;;;;;;10.85;4.75;;;;;;;10.94;100.00;97294.31;5089737;28;20497;-72
2024/04/04 04:46:16;;;;;;;11.98;4.80;;;;;;;11.03;100.00;97288.34;5054811;28;20075;-72
2024/04/04 04:49:18;;;;;;;;;;;;;;;;;;;;;
2024/04/04 04:52:09;;;;;;;10.95;5.00;;;;;;;11.13;100.00;97296.59;5068754;28;20050;-72
2024/04/04 04:55:13;;;;;;;25.42;6.20;;;;;;;11.12;100.00;97301.09;5089615;28;20149;-72
2024/04/04 04:57:56;;;;;;;16.58;6.22;;;;;;;11.12;100.00;97290.38;5089512;28;20032;-71
2024/04/04 05:00:45;;;;;;;;;;;;;;;11.25;100.00;97296.63;5050261;28;20045;-72
2024/04/04 05:06:36;;;;;;;13.85;4.50;;;;;;;11.57;100.00;97286.34;5054023;28;20043;-73
2024/04/04 05:09:19;;;;;;;13.13;5.40;;;;;;;11.90;100.00;97278.63;5051037;28;20056;-72
2024/04/04 05:12:00;;;;;;;10.00;4.25;;;;;;;12.08;100.00;97287.19;5051117;28;20048;-73
2024/04/04 05:17:36;;;;;;;21.90;4.90;;;;;;;12.80;100.00;97282.72;5068612;28;20037;-71
2024/04/04 05:20:17;;;;;;;24.65;5.22;;;;;;;12.92;100.00;97279.97;5034677;28;20036;-72
2024/04/04 05:23:00;;;;;;;23.90;7.32;;;;;;;13.21;100.00;97296.59;5051752;28;20071;-72
2024/04/04 05:25:42;;;;;;;;;;;;;;;;;;;;;
2024/04/04 05:28:41;;;;;;;23.33;8.52;;;;;;;12.77;100.00;97302.59;5068558;28;20029;-72
2024/04/04 05:31:27;;;;;;;16.30;7.30;;;;;;;12.75;100.00;97309.91;5043709;28;20059;-72
2024/04/04 05:34:21;;;;;;;13.23;6.25;;;;;;;12.88;100.00;97299.13;5051209;28;20032;-73
2024/04/04 05:38:05;;;;;;;17.02;4.85;;;;;;;13.02;100.00;97307.84;5068675;28;20086;-73
2024/04/04 05:40:53;;;;;;;23.45;6.80;;;;;;;13.09;100.00;97296.66;5054208;28;20042;-71
2024/04/04 05:43:48;;;;;;;18.35;6.20;;;;;;;12.96;100.00;97302.06;5068449;28;20034;-73
2024/04/04 05:46:41;;;;;;;14.38;5.63;;;;;;;14.07;100.00;97292.44;5059854;28;20122;-71
2024/04/04 05:49:43;;;;;;;16.35;6.22;;;;;;;15.51;100.00;97272.31;5044272;28;20036;-72
2024/04/04 05:58:53;;;;;;;14.35;5.15;;;;;;;19.86;67.19;97239.53;5068255;28;20012;-72
2024/04/04 06:01:44;;;;;;;13.25;4.68;;;;;;;20.77;62.56;97229.78;5079281;28;20114;-72
2024/04/04 06:04:19;;;;;;;8.95;4.22;;;;;;;20.62;60.80;97223.28;5071008;28;20036;-72
2024/04/04 06:07:11;;;;;;;16.65;4.50;;;;;;;20.85;60.88;97234.41;5071575;28;20071;-72
2024/04/04 06:09:45;;;;;;;13.32;4.53;;;;;;;21.57;57.89;97234.50;5077179;28;20047;-72
2024/04/04 06:12:19;;;;;;;23.20;6.15;;;;;;;20.99;58.11;97234.59;5088246;28;20028;-72
2024/04/04 06:15:17;;;;;;;;;;;;;;;;;;;;;
2024/04/04 06:18:07;;;;;;;;;;;;;;;;;;;;;
2024/04/04 06:21:02;;;;;;;18.15;6.18;;;;;;;20.67;59.21;97249.97;5086061;28;20046;-72
2024/04/04 06:23:43;;;;;;;17.70;4.97;;;;;;;21.84;53.48;97241.44;5088143;28;20555;-71
2024/04/04 06:26:45;;;;;;;;;;;;;;;;;;;;;
2024/04/04 06:29:42;;;;;;;11.10;4.10;;;;;;;23.31;49.00;97228.94;5073086;28;20024;-71
2024/04/04 06:32:41;;;;;;;8.75;3.90;;;;;;;22.30;49.46;97241.72;5055562;28;20042;-71
2024/04/04 06:38:25;;;;;;;14.68;4.07;;;;;;;20.97;52.81;97247.53;5073081;28;20046;-72
2024/04/04 06:44:02;;;;;;;7.32;2.92;;;;;;;22.31;50.11;97252.44;5088107;28;20495;-72
2024/04/04 06:56:07;;;;;;;10.38;3.78;;;;;;;25.27;42.25;97252.94;5087807;28;20039;-72
2024/04/04 06:59:10;;;;;;;19.67;7.28;;;;;;;26.83;39.58;97249.00;5053098;28;20036;-72
2024/04/04 07:05:12;;;;;;;15.70;6.38;;;;;;;25.91;39.62;97245.59;5064142;28;20419;-71
2024/04/04 07:08:28;;;;;;;9.45;5.10;;;;;;;25.75;40.45;97254.09;5086886;28;20044;-72
2024/04/04 07:11:26;;;;;;;15.18;4.78;;;;;;;26.96;38.61;97254.56;5087288;28;20032;-72
2024/04/04 07:14:41;;;;;;;;;;;;;;;;;;;;;
2024/04/04 07:17:17;;;;;;;10.38;2.90;;;;;;;28.28;35.41;97240.03;5091289;28;20108;-71
2024/04/04 07:20:09;;;;;;;14.80;2.33;;;;;;;28.26;35.24;97233.03;5073806;28;20034;-72
2024/04/04 07:22:40;;;;;;;;;;;;;;;28.60;34.46;97227.25;5074084;28;20055;-71
2024/04/04 07:28:31;;;;;;;4.13;2.00;;;;;;;28.43;33.40;97221.34;5086386;28;20127;-71
2024/04/04 07:31:22;;;;;;;10.13;2.00;;;;;;;30.10;31.20;97219.25;5066459;28;20047;-71
2024/04/04 07:36:57;;;;;;;5.70;2.35;;;;;;;30.45;29.35;97217.69;5088056;28;20055;-72
2024/04/04 07:43:03;;;;;;;13.20;1.90;;;;;;;29.66;30.86;97227.63;5094068;28;20097;-72
2024/04/04 07:45:45;;;;;;;12.18;2.67;;;;;;;30.08;30.77;97232.44;5076477;28;20024;-72
2024/04/04 07:48:47;;;;;;;10.90;2.30;;;;;;;30.93;30.30;97241.78;5076542;28;20054;-72
2024/04/04 07:51:21;;;;;;;;;;;;;;;31.50;29.75;97238.53;5109375;28;20119;-72
2024/04/04 08:00:45;;;;;;;5.88;1.40;;;;;;;31.73;28.17;97239.72;5082566;28;20106;-72
2024/04/04 08:03:37;;;;;;;;;;;;;;;;;;;;;
2024/04/04 08:06:07;;;;;;;;;;;;;;;31.07;28.08;97246.13;5093684;28;20399;-72
2024/04/04 08:08:35;;;;;;;29.05;2.58;;;;;;;30.48;28.84;97257.81;5075611;28;20411;-71
2024/04/04 08:11:35;;;;;;;9.27;1.88;;;;;;;31.15;28.45;97262.41;5074340;28;20040;-72
2024/04/04 08:14:25;;;;;;;4.40;1.85;;;;;;;30.70;29.25;97269.28;5092939;28;20028;-71
2024/04/04 08:17:28;;;;;;;8.30;1.40;;;;;;;30.39;29.12;97270.22;5075457;28;20068;-71
2024/04/04 08:20:38;;;;;;;14.40;2.00;;;;;;;30.48;28.44;97269.69;5092673;28;20097;-72
2024/04/04 08:23:15;;;;;;;8.15;2.50;;;;;;;30.67;28.24;97267.78;5092630;28;20119;-72
2024/04/04 08:26:26;;;;;;;;;;;;;;;;;;;;;
2024/04/04 08:29:18;;;;;;;;;;;;;;;;;;;;;
2024/04/04 08:35:19;;;;;;;;;;;;;;;;;;;;;
2024/04/04 08:38:01;;;;;;;9.52;3.10;;;;;;;31.21;27.93;97282.72;5092577;28;20024;-73
2024/04/04 08:41:02;;;;;;;;;;;;;;;;;;;;;
2024/04/04 08:43:37;;;;;;;16.25;2.38;;;;;;;31.38;27.87;97292.91;5075660;28;20411;-72
2024/04/04 08:46:38;;;;;;;7.40;1.73;;;;;;;31.38;28.09;97290.16;5073804;28;20051;-73
2024/04/04 08:49:22;;;;;;;8.00;2.40;;;;;;;31.35;28.31;97293.38;5073879;28;20035;-73
2024/04/04 08:52:07;;;;;;;7.60;2.20;;;;;;;31.84;27.75;97292.31;5090452;28;20522;-72
2024/04/04 08:55:27;;;;;;;5.65;1.80;;;;;;;31.95;27.85;97293.44;5074041;28;20395;-72
2024/04/04 08:58:20;;;;;;;9.63;1.90;;;;;;;31.47;28.55;97299.81;5092019;28;20020;-74
2024/04/04 09:01:16;;;;;;;10.02;2.10;;;;;;;31.93;28.25;97290.06;5066722;28;20024;-73
2024/04/04 09:04:03;;;;;;;7.47;2.33;;;;;;;32.34;27.78;97294.75;5054575;28;20043;-72
2024/04/04 09:06:37;;;;;;;12.93;3.85;;;;;;;32.31;28.13;97289.69;5054814;28;20101;-72
2024/04/04 09:09:25;;;;;;;6.97;2.97;;;;;;;31.68;28.53;97307.69;5071546;28;20029;-73
2024/04/04 09:12:29;;;;;;;12.98;3.10;;;;;;;30.97;29.45;97304.72;5054663;28;20078;-72
2024/04/04 09:15:34;;;;;;;6.20;2.03;;;;;;;31.39;29.41;97313.13;5069712;28;20048;-72
2024/04/04 09:18:32;;;;;;;11.77;3.53;;;;;;;31.05;29.35;97292.50;5029610;28;20095;-72
2024/04/04 09:21:40;;;;;;;;;;;;;;;;;;;;;
2024/04/04 09:24:13;;;;;;;12.75;3.88;;;;;;;30.42;29.27;97291.84;5071441;28;20396;-72
2024/04/04 09:27:12;;;;;;;17.10;4.50;;;;;;;29.52;30.58;97301.34;5053830;28;20028;-72
2024/04/04 09:30:20;;;;;;;;;;;;;;;;;;;;;
2024/04/04 09:33:13;;;;;;;5.60;2.20;;;;;;;27.07;32.59;97303.38;5055716;28;20031;-71
2024/04/04 09:42:46;;;;;;;3.75;1.50;;;;;;;28.83;31.43;97284.59;5061104;28;20481;-72
2024/04/04 09:45:35;;;;;;;6.43;1.77;;;;;;;30.41;30.74;97285.47;5070964;28;20032;-71
2024/04/04 09:48:14;;;;;;;5.45;1.45;;;;;;;31.16;29.52;97280.69;5049735;28;20131;-71
2024/04/04 09:51:08;;;;;;;6.50;1.75;;;;;;;30.87;28.81;97275.88;5053681;28;20082;-71
2024/04/04 09:53:59;;;;;;;8.30;3.13;;;;;;;29.72;29.90;97281.94;5071098;28;20400;-71
2024/04/04 10:03:32;;;;;;;5.70;1.85;;;;;;;24.76;35.18;97291.22;5048270;28;20338;-72
2024/04/04 10:06:35;;;;;;;2.88;1.38;;;;;;;24.25;36.68;97300.38;5067919;28;20075;-70
2024/04/04 10:09:33;;;;;;;;;;;;;;;;;;;;;
2024/04/04 10:12:27;;;;;;;4.47;1.95;;;;;;;25.83;35.21;97300.56;5075331;28;20492;-70
2024/04/04 10:15:30;;;;;;;3.35;1.50;;;;;;;26.65;33.61;97289.84;5066958;28;20051;-72
2024/04/04 10:18:30;;;;;;;8.70;2.10;;;;;;;25.55;35.41;97302.38;5074555;28;20020;-71
2024/04/04 10:21:12;;;;;;;5.97;1.60;;;;;;;24.98;35.76;97300.41;5074852;28;20032;-72
2024/04/04 10:23:56;;;;;;;24.17;2.67;;;;;;;24.13;36.79;97294.50;5055635;28;20430;-71
2024/04/04 10:26:32;;;;;;;8.45;1.60;;;;;;;23.65;37.48;97303.97;5107071;28;20082;-70
2024/04/04 10:29:11;;;;;;;12.75;2.10;;;;;;;23.15;38.09;97304.44;5073090;28;20388;-70
2024/04/04 10:32:25;;;;;;;;;;;;;;;;;;;;;
2024/04/04 10:35:22;;;;;;;2.13;1.63;;;;;;;22.51;38.67;97305.53;5069636;28;20468;-68
2024/04/04 10:38:14;;;;;;;5.97;2.17;;;;;;;22.15;39.26;97305.09;5052849;28;20063;-72
2024/04/04 10:41:19;;;;;;;12.75;4.20;;;;;;;21.97;39.74;97311.75;5052356;28;20027;-72
2024/04/04 10:44:20;;;;;;;;;;;;;;;;;;;;;
2024/04/04 10:47:21;;;;;;;5.93;2.42;;;;;;;21.43;40.54;97318.69;5070411;28;20036;-72
2024/04/04 10:50:41;;;;;;;3.47;2.30;;;;;;;21.29;41.91;97322.91;5070084;28;20032;-73
2024/04/04 10:53:24;;;;;;;5.07;1.67;;;;;;;21.19;42.53;97330.41;5057145;28;20103;-70
2024/04/04 10:56:03;;;;;;;4.80;1.85;;;;;;;21.25;43.58;97337.03;5051991;28;20045;-71
2024/04/04 10:58:53;;;;;;;10.75;5.07;;;;;;;21.77;42.61;97327.59;5036415;28;20093;-71
2024/04/04 11:02:06;;;;;;;;;;;;;;;;;;;;;
2024/04/04 11:05:07;;;;;;;;;;;;;;;;;;;;;
2024/04/04 11:14:20;;;;;;;2.15;1.58;;;;;;;22.66;40.29;97341.13;5082616;28;20120;-72
2024/04/04 11:17:27;;;;;;;16.60;9.93;;;;;;;22.42;40.86;97339.31;5073035;28;20166;-72
2024/04/04 11:20:31;;;;;;;7.90;3.75;;;;;;;22.34;40.38;97335.72;5074538;28;20044;-73
2024/04/04 11:26:28;;;;;;;6.18;1.90;;;;;;;21.95;41.17;97336.47;5054440;28;20029;-73
2024/04/04 11:29:08;;;;;;;7.22;2.38;;;;;;;21.72;41.52;97340.00;5065193;28;20024;-72
2024/04/04 11:32:18;;;;;;;;;;;;;;;;;;;;;
2024/04/04 11:35:10;;;;;;;10.55;2.35;;;;;;;21.84;42.39;97342.19;5073160;28;20035;-72
2024/04/04 11:37:52;;;;;;;25.85;1.80;;;;;;;21.87;42.15;97328.25;5089281;28;20038;-72
2024/04/04 11:40:40;;;;;;;6.63;1.55;;;;;;;21.89;42.29;97342.59;5105770;28;20115;-72
2024/04/04 11:43:16;;;;;;;6.03;1.80;;;;;;;22.66;41.12;97332.97;5073080;28;20058;-71
2024/04/04 11:46:15;;;;;;;10.85;2.13;;;;;;;23.11;40.29;97330.38;5071864;28;20140;-72
2024/04/04 11:49:22;;;;;;;9.10;1.67;;;;;;;23.30;39.13;97322.75;5089749;28;20174;-72
2024/04/04 11:55:24;;;;;;;3.30;1.70;;;;;;;23.80;38.21;97314.09;5089738;28;20125;-72
2024/04/04 11:58:19;;;;;;;2.42;1.50;;;;;;;25.06;36.56;97316.75;5090156;28;20055;-72
2024/04/04 12:01:10;;;;;;;3.38;1.80;;;;;;;27.14;34.29;97318.00;5089945;28;20105;-73
2024/04/04 12:04:12;;;;;;;3.40;1.33;;;;;;;29.83;31.37;97300.56;5093043;28;20071;-74
2024/04/04 12:07:03;;;;;;;3.25;1.60;;;;;;;31.62;28.89;97296.69;5059682;28;20499;-73
2024/04/04 12:10:04;;;;;;;2.50;1.35;;;;;;;32.87;28.03;97290.00;5077295;28;20031;-74
2024/04/04 12:12:50;;;;;;;3.67;1.60;;;;;;;33.52;27.13;97282.31;5068189;28;20039;-73
2024/04/04 12:15:31;;;;;;;6.50;1.60;;;;;;;34.46;26.16;97285.47;5075552;28;20028;-73
2024/04/04 12:21:16;;;;;;;4.10;1.60;;;;;;;33.70;26.15;97272.97;5069297;28;20038;-73
2024/04/04 12:24:07;;;;;;;;;;;;;;;;;;;;;
2024/04/04 12:33:31;;;;;;;3.05;1.40;;;;;;;32.13;27.66;97271.25;5089541;28;20028;-72
2024/04/04 12:36:24;;;;;;;2.85;1.55;;;;;;;30.52;28.57;97268.16;5092878;28;20094;-72
2024/04/04 12:42:06;;;;;;;3.13;1.40;;;;;;;30.91;28.40;97260.53;5092884;28;20644;-72
2024/04/04 12:44:59;;;;;;;2.40;1.40;;;;;;;32.41;27.61;97260.34;5091554;28;20032;-73
2024/04/04 12:48:02;;;;;;;3.58;1.50;;;;;;;31.03;28.27;97259.56;5049917;28;20044;-73
2024/04/04 12:50:41;;;;;;;3.72;1.50;;;;;;;30.09;29.03;97257.03;5057283;28;20484;-72
2024/04/04 12:59:59;;;;;;;;;;;;;;;;;;;;;
2024/04/04 13:02:52;;;;;;;5.22;1.70;;;;;;;25.52;34.28;97275.38;5082141;28;20051;-71
2024/04/04 13:05:41;;;;;;;8.75;1.58;;;;;;;24.58;35.94;97276.28;5071692;28;20032;-72
2024/04/04 13:08:25;;;;;;;8.18;1.58;;;;;;;24.27;36.59;97279.19;5071877;28;20579;-73
2024/04/04 13:11:20;;;;;;;6.63;2.15;;;;;;;24.71;36.54;97281.91;5055135;28;20107;-73
2024/04/04 13:14:08;;;;;;;4.22;1.33;;;;;;;24.65;36.35;97277.19;5053581;28;20056;-72
2024/04/04 13:19:53;;;;;;;4.60;1.88;;;;;;;23.47;38.57;97283.44;5057450;28;20094;-72
2024/04/04 13:23:03;;;;;;;5.15;2.17;;;;;;;23.34;39.32;97292.22;5052369;28;20158;-72
2024/04/04 13:29:43;;;;;;;6.93;2.40;;;;;;;22.47;41.58;97304.19;5070895;28;20131;-72
2024/04/04 13:35:24;;;;;;;;;;;;;;;;;;;;;
2024/04/04 13:38:15;;;;;;;2.83;1.80;;;;;;;21.86;41.91;97304.78;5071093;28;20021;-72
2024/04/04 13:41:11;;;;;;;7.18;2.53;;;;;;;21.81;43.08;97309.84;5034932;28;20037;-71
2024/04/04 13:44:18;;;;;;;;;;;;;;;;;;;;;
2024/04/04 13:47:08;;;;;;;8.50;2.92;;;;;;;22.12;42.40;97315.47;5056011;28;20031;-72
2024/04/04 13:50:34;;;;;;;;;;;;;;;;;;;;;
2024/04/04 13:53:28;;;;;;;5.03;2.10;;;;;;;22.46;41.29;97309.78;5050218;28;20044;-71
2024/04/04 13:56:27;;;;;;;3.13;1.50;;;;;;;22.28;41.77;97314.59;5070912;28;20032;-72
2024/04/04 13:59:45;;;;;;;7.32;2.50;;;;;;;22.05;42.20;97314.50;5053106;28;20091;-72
2024/04/04 14:02:57;;;;;;;4.38;2.00;;;;;;;21.74;42.77;97317.03;5059407;28;20179;-72
2024/04/04 14:05:44;;;;;;;9.65;2.22;;;;;;;21.63;44.48;97311.91;5070985;28;20032;-71
2024/04/04 14:08:25;;;;;;;7.93;2.00;;;;;;;21.84;43.50;97316.88;5070664;28;20040;-71
2024/04/04 14:11:16;;;;;;;12.75;2.20;;;;;;;21.88;44.03;97320.94;5052605;28;20150;-71
2024/04/04 14:17:38;;;;;;;;;;;;;;;;;;;;;
2024/04/04 14:20:54;;;;;;;9.60;2.10;;;;;;;21.75;43.56;97318.72;5070550;28;20028;-71
2024/04/04 14:27:29;;;;;;;8.35;2.00;;;;;;;21.52;43.10;97324.00;5066859;28;20063;-70
2024/04/04 14:30:02;;;;;;;3.13;1.80;;;;;;;21.32;43.01;97329.91;5052804;28;20024;-71
2024/04/04 14:36:07;;;;;;;7.78;1.85;;;;;;;21.29;42.96;97330.22;5044383;28;20118;-71
2024/04/04 14:39:10;;;;;;;2.45;1.80;;;;;;;21.26;42.91;97333.28;5037835;28;20543;-70
2024/04/04 14:41:56;;;;;;;2.58;1.85;;;;;;;21.31;43.26;97333.66;5050178;28;20494;-71
2024/04/04 14:45:11;;;;;;;;;;;;;;;;;;;;;
2024/04/04 14:48:54;;;;;;;5.80;1.75;;;;;;;21.38;43.46;97332.81;5053441;28;20030;-71
2024/04/04 14:51:52;;;;;;;6.05;1.98;;;;;;;21.53;43.64;97336.56;5028138;28;20030;-71
2024/04/04 14:54:53;;;;;;;8.02;2.47;;;;;;;21.47;43.43;97331.78;5012392;28;20099;-70
2024/04/04 14:57:53;;;;;;;7.72;2.97;;;;;;;21.47;43.51;97330.97;5040739;28;20502;-71
2024/04/04 15:00:54;;;;;;;3.35;1.77;;;;;;;21.75;42.88;97326.88;5069905;28;20047;-71
2024/04/04 15:03:45;;;;;;;3.72;2.30;;;;;;;21.93;42.73;97338.47;5064079;28;20051;-71
2024/04/04 15:07:06;;;;;;;;;;;;;;;;;;;;;
2024/04/04 15:09:50;;;;;;;9.40;2.17;;;;;;;22.30;42.31;97334.38;5059517;28;20048;-70
2024/04/04 15:15:47;;;;;;;9.95;2.30;;;;;;;22.26;40.42;97324.84;5056069;28;20052;-72
2024/04/04 15:18:52;;;;;;;3.72;1.75;;;;;;;22.18;40.74;97320.25;5064782;28;20031;-72
2024/04/04 15:21:43;;;;;;;;;;;;;;;;;;;;;
2024/04/04 15:24:35;;;;;;;18.52;11.77;;;;;;;22.04;40.87;97319.09;5053301;28;20043;-71
2024/04/04 15:27:44;;;;;;;;;;;;;;;;;;;;;
2024/04/04 15:31:08;;;;;;;2.20;1.30;;;;;;;21.59;40.53;97325.00;5069946;28;20032;-72
2024/04/04 15:34:09;;;;;;;4.03;1.73;;;;;;;21.48;40.73;97329.94;5039798;28;20040;-70
2024/04/04 15:37:10;;;;;;;;;;;;;;;;;;;;;
2024/04/04 15:39:52;;;;;;;2.85;1.65;;;;;;;21.04;41.38;97341.00;5068600;28;20422;-71
2024/04/04 15:42:36;;;;;;;5.67;2.03;;;;;;;20.87;42.21;97350.13;5056658;28;20020;-71
2024/04/04 15:45:17;;;;;;;3.30;2.00;;;;;;;21.12;41.46;97345.66;5073400;28;20433;-72
2024/04/04 15:48:06;;;;;;;;;;;;;;;;;;;;;
2024/04/04 15:53:39;;;;;;;;;;;;;;;;;;;;;
2024/04/04 15:56:32;;;;;;;7.70;1.73;;;;;;;20.87;42.10;97361.00;5073758;28;20024;-71
2024/04/04 15:59:19;;;;;;;8.02;1.83;;;;;;;20.79;41.72;97352.84;5073022;28;20024;-71
2024/04/04 16:02:13;;;;;;;9.38;2.03;;;;;;;20.69;42.51;97356.69;5072960;28;20456;-71
2024/04/04 16:05:00;;;;;;;8.98;3.03;;;;;;;20.64;42.83;97375.34;5093063;28;20470;-71
2024/04/04 16:10:40;;;;;;;3.55;2.47;;;;;;;20.61;43.12;97368.34;5073085;28;20510;-70
2024/04/04 16:13:49;;;;;;;25.77;8.20;;;;;;;20.51;43.33;97371.22;5092811;28;20165;-70
2024/04/04 16:16:37;;;;;;;114.90;37.60;;;;;;;20.47;43.38;97379.81;5093135;28;20376;-71
2024/04/04 16:22:35;;;;;;;38.08;12.25;;;;;;;20.37;44.13;97389.94;5080639;28;20043;-70
2024/04/04 16:25:48;;;;;;;12.38;4.32;;;;;;;20.29;43.92;97392.63;5089274;28;20046;-71
2024/04/04 16:28:43;;;;;;;6.50;3.17;;;;;;;20.22;44.22;97386.94;5062169;28;20039;-71
2024/04/04 16:31:36;;;;;;;6.82;3.20;;;;;;;20.20;44.22;97394.41;5089767;28;20472;-72
2024/04/04 16:34:36;;;;;;;6.05;2.50;;;;;;;20.09;44.47;97399.22;5072253;28;20036;-73
2024/04/04 16:37:12;;;;;;;22.88;10.13;;;;;;;19.76;46.05;97411.66;5071528;28;20066;-72
2024/04/04 16:40:14;;;;;;;9.82;2.92;;;;;;;19.76;45.54;97420.66;5072279;28;20039;-71
2024/04/04 16:42:56;;;;;;;6.80;2.83;;;;;;;19.63;45.69;97411.19;5084578;28;20043;-70
2024/04/04 16:45:47;;;;;;;;;;;;;;;;;;;;;
2024/04/04 16:48:36;;;;;;;;;;;;;;;;;;;;;
2024/04/04 16:54:51;;;;;;;8.95;2.90;;;;;;;19.11;47.94;97427.19;5073228;28;20100;-71
2024/04/04 16:57:37;;;;;;;11.60;4.80;;;;;;;19.09;48.24;97428.34;5070937;28;20065;-71
2024/04/04 17:00:43;;;;;;;9.43;3.55;;;;;;;19.13;48.11;97435.19;5105190;28;20128;-72
2024/04/04 17:03:18;;;;;;;11.70;4.70;;;;;;;19.06;49.06;97434.94;5071048;28;20089;-72
2024/04/04 17:06:17;;;;;;;13.68;4.80;;;;;;;19.04;49.09;97441.50;5089615;28;20039;-73
2024/04/04 17:08:58;;;;;;;;;;;;;;;;;;;;;
2024/04/04 17:12:05;;;;;;;12.15;4.35;;;;;;;18.95;49.11;97448.66;5072768;28;20028;-72
2024/04/04 17:14:46;;;;;;;18.13;5.60;;;;;;;18.82;49.79;97451.75;5088768;28;20393;-73
2024/04/04 17:17:48;;;;;;;17.83;5.78;;;;;;;18.71;50.44;97465.44;5072420;28;20035;-72
2024/04/04 17:26:21;;;;;;;4.32;2.08;;;;;;;18.35;49.33;97460.81;5089110;28;20526;-72
2024/04/04 17:29:34;;;;;;;;;;;;;;;;;;;;;
2024/04/04 17:32:12;;;;;;;5.93;2.67;;;;;;;18.19;50.16;97477.63;5072850;28;20027;-72
2024/04/04 17:34:56;;;;;;;23.05;6.28;;;;;;;18.05;51.30;97485.34;5089026;28;20038;-72
2024/04/04 17:37:27;;;;;;;12.98;5.47;;;;;;;18.01;51.54;97486.63;5089168;28;20036;-73
2024/04/04 17:40:23;;;;;;;8.18;4.13;;;;;;;17.81;51.59;97481.19;5069844;28;20055;-72
2024/04/04 17:42:54;;;;;;;7.13;3.75;;;;;;;17.71;52.54;97493.88;5073082;28;20040;-74
2024/04/04 17:45:50;;;;;;;10.63;4.03;;;;;;;17.58;53.02;97493.28;5070002;28;20526;-72
2024/04/04 17:48:24;;;;;;;5.78;2.90;;;;;;;17.44;53.48;97495.50;5079487;28;20293;-72
2024/04/04 17:51:05;;;;;;;6.90;3.25;;;;;;;17.40;57.45;97497.63;5054017;28;20074;-73
2024/04/04 17:53:54;;;;;;;9.35;3.47;;;;;;;17.33;64.42;97518.94;5088793;28;20031;-73
2024/04/04 17:56:20;;;;;;;8.02;5.38;;;;;;;17.14;72.73;97536.94;5071484;28;20081;-74